Ashland, Kentucky
Current Conditions -  °F | °C
As of 9:35 AM on Friday 28 Nov 2014 (Local Time) from KDWU Reporting Station
Overcast Overcast  
Wind Chill: -4°   Ceiling: 4200
Heat Index: -1°   Visibility: 10mi
Dew Point: -10°   Wind: 6mph
Humidity: 51%   Direction: 300°WNW
Pressure: 30.41"   Gusts: NA
Location:  38.48°N, 82.64°W
Report Text: KDWU 281435Z AUTO 30005KT 10SM FEW032 BKN042 OVC100 M01/M10 A3041 RMK AO1
Loading
Personal Weather Stations






























Interactive Weather Map New forecast layout! Learn more

10-Day Weather Forecast

Advertisements
Track Severe Weather on mobile